sensor_id;sensor_type;location;lat;lon;timestamp;pressure;altitude;pressure_sealevel;temperature;humidity
7832;BME280;3961;42.058;25.586;2022-07-10T00:02:12;64589.44;;;20.88;91.20
7832;BME280;3961;42.058;25.586;2022-07-10T00:04:37;64576.22;;;20.78;90.96
7832;BME280;3961;42.058;25.586;2022-07-10T00:07:03;64587.66;;;20.86;90.53
7832;BME280;3961;42.058;25.586;2022-07-10T00:09:29;64572.56;;;20.80;90.94
7832;BME280;3961;42.058;25.586;2022-07-10T00:11:56;64559.28;;;20.64;90.88
7832;BME280;3961;42.058;25.586;2022-07-10T00:14:21;64598.19;;;20.95;90.31
7832;BME280;3961;42.058;25.586;2022-07-10T00:16:47;64601.34;;;21.00;89.80
7832;BME280;3961;42.058;25.586;2022-07-10T00:19:12;64593.16;;;20.93;89.71
7832;BME280;3961;42.058;25.586;2022-07-10T00:21:38;64592.56;;;20.93;89.79
7832;BME280;3961;42.058;25.586;2022-07-10T00:24:04;64579.72;;;20.82;90.35
7832;BME280;3961;42.058;25.586;2022-07-10T00:26:30;64578.94;;;20.78;90.47
7832;BME280;3961;42.058;25.586;2022-07-10T00:28:55;64571.91;;;20.72;90.23
7832;BME280;3961;42.058;25.586;2022-07-10T00:31:21;64592.94;;;20.91;89.78
7832;BME280;3961;42.058;25.586;2022-07-10T00:33:47;64586.50;;;20.85;89.65
7832;BME280;3961;42.058;25.586;2022-07-10T00:36:14;64589.44;;;20.88;89.53
7832;BME280;3961;42.058;25.586;2022-07-10T00:38:39;64535.72;;;20.41;89.94
7832;BME280;3961;42.058;25.586;2022-07-10T00:41:05;64576.59;;;20.76;89.54
7832;BME280;3961;42.058;25.586;2022-07-10T00:43:51;64585.91;;;20.85;89.60
7832;BME280;3961;42.058;25.586;2022-07-10T00:46:16;64581.25;;;20.80;89.78
7832;BME280;3961;42.058;25.586;2022-07-10T00:48:47;64568.41;;;20.69;90.33
7832;BME280;3961;42.058;25.586;2022-07-10T00:51:13;64572.16;;;20.75;90.12
7832;BME280;3961;42.058;25.586;2022-07-10T00:53:39;64570.41;;;20.73;89.59
7832;BME280;3961;42.058;25.586;2022-07-10T00:56:06;64575.44;;;20.75;89.79
7832;BME280;3961;42.058;25.586;2022-07-10T00:58:33;64571.56;;;20.74;89.96
7832;BME280;3961;42.058;25.586;2022-07-10T01:01:01;64555.19;;;20.60;90.13
7832;BME280;3961;42.058;25.586;2022-07-10T01:03:27;64578.72;;;20.76;89.81
7832;BME280;3961;42.058;25.586;2022-07-10T01:05:53;64571.78;;;20.77;89.88
7832;BME280;3961;42.058;25.586;2022-07-10T01:08:19;64570.75;;;20.71;89.95
7832;BME280;3961;42.058;25.586;2022-07-10T01:10:45;64556.72;;;20.59;90.70
7832;BME280;3961;42.058;25.586;2022-07-10T01:13:13;64547.53;;;20.47;90.95
7832;BME280;3961;42.058;25.586;2022-07-10T01:15:38;64547.97;;;20.52;91.50
7832;BME280;3961;42.058;25.586;2022-07-10T01:18:04;64559.44;;;20.59;90.87
7832;BME280;3961;42.058;25.586;2022-07-10T01:20:33;64559.06;;;20.61;91.06
7832;BME280;3961;42.058;25.586;2022-07-10T01:22:59;64551.69;;;20.57;91.16
7832;BME280;3961;42.058;25.586;2022-07-10T01:25:25;64545.63;;;20.50;92.00
7832;BME280;3961;42.058;25.586;2022-07-10T01:27:51;64534.19;;;20.42;92.65
7832;BME280;3961;42.058;25.586;2022-07-10T01:30:17;64515.13;;;20.28;92.71
7832;BME280;3961;42.058;25.586;2022-07-10T01:32:46;64533.97;;;20.39;92.98
7832;BME280;3961;42.058;25.586;2022-07-10T01:35:12;64527.88;;;20.32;93.38
7832;BME280;3961;42.058;25.586;2022-07-10T01:37:41;64536.66;;;20.39;93.22
7832;BME280;3961;42.058;25.586;2022-07-10T01:40:08;64523.44;;;20.30;93.89
7832;BME280;3961;42.058;25.586;2022-07-10T01:42:34;64527.16;;;20.36;93.63
7832;BME280;3961;42.058;25.586;2022-07-10T01:44:59;64519.94;;;20.27;94.19
7832;BME280;3961;42.058;25.586;2022-07-10T01:47:25;64533.38;;;20.39;93.65
7832;BME280;3961;42.058;25.586;2022-07-10T01:49:53;64519.56;;;20.29;93.89
7832;BME280;3961;42.058;25.586;2022-07-10T01:52:19;64531.28;;;20.39;93.67
7832;BME280;3961;42.058;25.586;2022-07-10T01:54:46;64523.66;;;20.33;93.94
7832;BME280;3961;42.058;25.586;2022-07-10T01:57:12;64515.25;;;20.23;94.40
7832;BME280;3961;42.058;25.586;2022-07-10T01:59:39;64520.88;;;20.26;94.75
7832;BME280;3961;42.058;25.586;2022-07-10T02:02:05;64513.72;;;20.24;94.83
7832;BME280;3961;42.058;25.586;2022-07-10T02:04:31;64522.25;;;20.29;94.37
7832;BME280;3961;42.058;25.586;2022-07-10T02:07:14;64521.69;;;20.29;94.54
7832;BME280;3961;42.058;25.586;2022-07-10T02:09:41;64511.16;;;20.20;95.25
7832;BME280;3961;42.058;25.586;2022-07-10T02:12:09;64512.91;;;20.21;95.38
7832;BME280;3961;42.058;25.586;2022-07-10T02:14:35;64504.63;;;20.19;95.50
7832;BME280;3961;42.058;25.586;2022-07-10T02:19:36;64488.28;;;20.04;95.77
7832;BME280;3961;42.058;25.586;2022-07-10T02:22:02;64519.94;;;20.27;95.63
7832;BME280;3961;42.058;25.586;2022-07-10T02:24:28;64516.44;;;20.24;95.86
7832;BME280;3961;42.058;25.586;2022-07-10T02:26:53;64487.47;;;20.01;97.03
7832;BME280;3961;42.058;25.586;2022-07-10T02:29:20;64502.06;;;20.14;96.59
7832;BME280;3961;42.058;25.586;2022-07-10T02:31:48;64511.75;;;20.20;96.32
7832;BME280;3961;42.058;25.586;2022-07-10T02:34:14;64500.69;;;20.10;97.02
7832;BME280;3961;42.058;25.586;2022-07-10T02:36:40;64501.84;;;20.11;97.26
7832;BME280;3961;42.058;25.586;2022-07-10T02:39:06;64489.22;;;20.03;97.50
7832;BME280;3961;42.058;25.586;2022-07-10T02:41:32;64494.25;;;20.05;97.59
7832;BME280;3961;42.058;25.586;2022-07-10T02:43:58;64490.63;;;20.06;97.92
7832;BME280;3961;42.058;25.586;2022-07-10T02:46:24;64494.50;;;20.07;97.82
7832;BME280;3961;42.058;25.586;2022-07-10T02:48:50;64487.47;;;20.01;97.36
7832;BME280;3961;42.058;25.586;2022-07-10T02:51:16;64493.53;;;20.09;97.54
7832;BME280;3961;42.058;25.586;2022-07-10T02:53:42;64496.00;;;20.06;97.66
7832;BME280;3961;42.058;25.586;2022-07-10T02:56:07;64487.25;;;19.99;98.20
7832;BME280;3961;42.058;25.586;2022-07-10T02:58:34;64482.81;;;19.97;98.67
7832;BME280;3961;42.058;25.586;2022-07-10T03:01:00;64492.50;;;20.03;97.99
7832;BME280;3961;42.058;25.586;2022-07-10T03:03:26;64478.13;;;19.93;98.37
7832;BME280;3961;42.058;25.586;2022-07-10T03:05:53;64496.47;;;20.11;97.41
7832;BME280;3961;42.058;25.586;2022-07-10T03:08:18;64477.31;;;19.90;98.44
7832;BME280;3961;42.058;25.586;2022-07-10T03:10:44;64478.38;;;19.96;98.27
7832;BME280;3961;42.058;25.586;2022-07-10T03:13:10;64469.97;;;19.86;98.59
7832;BME280;3961;42.058;25.586;2022-07-10T03:15:35;64456.56;;;19.74;98.98
7832;BME280;3961;42.058;25.586;2022-07-10T03:18:01;64468.22;;;19.85;98.94
7832;BME280;3961;42.058;25.586;2022-07-10T03:20:27;64475.81;;;19.91;98.48
7832;BME280;3961;42.058;25.586;2022-07-10T03:22:52;64470.91;;;19.85;98.88
7832;BME280;3961;42.058;25.586;2022-07-10T03:25:18;64476.63;;;19.94;98.58
7832;BME280;3961;42.058;25.586;2022-07-10T03:27:44;64467.03;;;19.84;99.01
7832;BME280;3961;42.058;25.586;2022-07-10T03:30:09;64470.78;;;19.89;98.94
7832;BME280;3961;42.058;25.586;2022-07-10T03:32:35;64483.97;;;19.98;98.67
7832;BME280;3961;42.058;25.586;2022-07-10T03:35:01;64473.47;;;19.89;99.19
7832;BME280;3961;42.058;25.586;2022-07-10T03:37:26;64469.97;;;19.86;98.87
7832;BME280;3961;42.058;25.586;2022-07-10T03:39:52;64473.47;;;19.89;99.58
7832;BME280;3961;42.058;25.586;2022-07-10T03:42:18;64485.50;;;19.97;99.14
7832;BME280;3961;42.058;25.586;2022-07-10T03:44:43;64510.00;;;20.19;98.03
7832;BME280;3961;42.058;25.586;2022-07-10T03:47:09;64537.84;;;20.40;97.00
7832;BME280;3961;42.058;25.586;2022-07-10T03:49:35;64536.53;;;20.44;96.37
7832;BME280;3961;42.058;25.586;2022-07-10T03:52:02;64580.31;;;20.82;94.60
7832;BME280;3961;42.058;25.586;2022-07-10T03:54:28;64680.97;;;21.65;90.42
7832;BME280;3961;42.058;25.586;2022-07-10T03:56:54;64825.47;;;22.90;84.87
7832;BME280;3961;42.058;25.586;2022-07-10T03:59:38;65008.47;;;24.51;76.46
7832;BME280;3961;42.058;25.586;2022-07-10T04:02:04;65104.66;;;25.34;72.95
7832;BME280;3961;42.058;25.586;2022-07-10T04:04:29;65275.38;;;26.80;67.16
7832;BME280;3961;42.058;25.586;2022-07-10T04:06:56;65199.78;;;26.17;68.26
7832;BME280;3961;42.058;25.586;2022-07-10T04:09:22;65250.31;;;26.60;66.69
7832;BME280;3961;42.058;25.586;2022-07-10T04:11:47;65109.38;;;25.38;70.83
7832;BME280;3961;42.058;25.586;2022-07-10T04:14:13;65013.53;;;24.53;73.31
7832;BME280;3961;42.058;25.586;2022-07-10T04:16:38;64867.69;;;23.34;79.19
7832;BME280;3961;42.058;25.586;2022-07-10T04:19:04;64830.16;;;22.94;81.31
7832;BME280;3961;42.058;25.586;2022-07-10T04:21:29;64793.72;;;22.67;83.20
7832;BME280;3961;42.058;25.586;2022-07-10T04:23:55;64726.81;;;22.07;86.05
7832;BME280;3961;42.058;25.586;2022-07-10T04:26:20;64756.63;;;22.33;85.72
7832;BME280;3961;42.058;25.586;2022-07-10T04:28:46;64827.44;;;22.94;83.64
7832;BME280;3961;42.058;25.586;2022-07-10T04:31:12;64990.31;;;24.35;77.75
7832;BME280;3961;42.058;25.586;2022-07-10T04:33:37;65047.97;;;24.88;74.60
7832;BME280;3961;42.058;25.586;2022-07-10T04:36:03;65287.13;;;26.90;66.69
7832;BME280;3961;42.058;25.586;2022-07-10T04:38:28;65565.84;;;29.28;59.54
7832;BME280;3961;42.058;25.586;2022-07-10T04:40:54;65632.84;;;29.90;57.34
7832;BME280;3961;42.058;25.586;2022-07-10T04:43:20;65729.38;;;30.71;54.06
7832;BME280;3961;42.058;25.586;2022-07-10T04:45:46;65733.94;;;30.80;53.71
7832;BME280;3961;42.058;25.586;2022-07-10T04:48:11;65683.94;;;30.32;53.84
7832;BME280;3961;42.058;25.586;2022-07-10T04:50:37;65878.34;;;32.01;49.94
7832;BME280;3961;42.058;25.586;2022-07-10T04:53:03;65715.00;;;30.56;52.71
7832;BME280;3961;42.058;25.586;2022-07-10T04:55:29;65675.91;;;30.27;53.76
7832;BME280;3961;42.058;25.586;2022-07-10T04:57:54;65712.06;;;30.54;53.31
7832;BME280;3961;42.058;25.586;2022-07-10T05:00:20;65691.22;;;30.40;53.21
7832;BME280;3961;42.058;25.586;2022-07-10T05:02:46;65725.25;;;30.67;52.83
7832;BME280;3961;42.058;25.586;2022-07-10T05:05:12;65516.59;;;28.88;56.93
7832;BME280;3961;42.058;25.586;2022-07-10T05:07:37;65385.91;;;27.75;60.54
7832;BME280;3961;42.058;25.586;2022-07-10T05:10:03;65292.25;;;26.99;63.87
7832;BME280;3961;42.058;25.586;2022-07-10T05:12:29;65254.03;;;26.66;64.96
7832;BME280;3961;42.058;25.586;2022-07-10T05:14:54;65157.50;;;25.80;68.32
7832;BME280;3961;42.058;25.586;2022-07-10T05:17:21;65168.91;;;25.92;68.24
7832;BME280;3961;42.058;25.586;2022-07-10T05:19:46;65165.38;;;25.89;69.03
7832;BME280;3961;42.058;25.586;2022-07-10T05:22:12;65146.94;;;25.71;69.25
7832;BME280;3961;42.058;25.586;2022-07-10T05:24:37;65114.66;;;25.43;70.54
7832;BME280;3961;42.058;25.586;2022-07-10T05:27:03;65077.31;;;25.13;71.70
7832;BME280;3961;42.058;25.586;2022-07-10T05:29:29;65063.63;;;24.99;72.53
7832;BME280;3961;42.058;25.586;2022-07-10T05:31:54;65076.16;;;25.12;72.60
7832;BME280;3961;42.058;25.586;2022-07-10T05:34:20;65058.56;;;24.97;73.02
7832;BME280;3961;42.058;25.586;2022-07-10T05:36:46;65021.97;;;24.63;74.64
7832;BME280;3961;42.058;25.586;2022-07-10T05:39:11;65025.72;;;24.68;74.82
7832;BME280;3961;42.058;25.586;2022-07-10T05:41:37;65020.22;;;24.61;75.32
7832;BME280;3961;42.058;25.586;2022-07-10T05:44:03;65048.94;;;24.86;74.47
7832;BME280;3961;42.058;25.586;2022-07-10T05:46:29;65060.31;;;24.98;74.29
7832;BME280;3961;42.058;25.586;2022-07-10T05:48:54;65108.56;;;25.35;73.32
7832;BME280;3961;42.058;25.586;2022-07-10T05:51:20;65143.41;;;25.68;72.23
7832;BME280;3961;42.058;25.586;2022-07-10T05:53:45;65144.59;;;25.69;71.27
7832;BME280;3961;42.058;25.586;2022-07-10T05:56:11;65187.81;;;26.04;70.62
7832;BME280;3961;42.058;25.586;2022-07-10T05:58:37;65251.66;;;26.57;69.47
7832;BME280;3961;42.058;25.586;2022-07-10T06:01:02;65275.38;;;26.80;67.64
7832;BME280;3961;42.058;25.586;2022-07-10T06:03:28;65276.59;;;26.88;66.71
7832;BME280;3961;42.058;25.586;2022-07-10T06:05:54;65301.81;;;27.02;66.21
7832;BME280;3961;42.058;25.586;2022-07-10T06:08:20;65303.22;;;27.06;66.43
7832;BME280;3961;42.058;25.586;2022-07-10T06:10:45;65330.03;;;27.27;66.05
7832;BME280;3961;42.058;25.586;2022-07-10T06:13:11;65326.31;;;27.21;65.80
7832;BME280;3961;42.058;25.586;2022-07-10T06:15:37;65349.06;;;27.46;65.38
7832;BME280;3961;42.058;25.586;2022-07-10T06:18:02;65348.47;;;27.45;64.20
7832;BME280;3961;42.058;25.586;2022-07-10T06:20:28;65302.25;;;27.07;65.69
7832;BME280;3961;42.058;25.586;2022-07-10T06:22:54;65314.38;;;27.16;65.17
7832;BME280;3961;42.058;25.586;2022-07-10T06:25:19;65308.50;;;27.10;65.59
7832;BME280;3961;42.058;25.586;2022-07-10T06:27:45;65341.19;;;27.36;65.10
7832;BME280;3961;42.058;25.586;2022-07-10T06:30:10;65341.41;;;27.39;65.14
7832;BME280;3961;42.058;25.586;2022-07-10T06:32:37;65313.41;;;27.17;64.75
7832;BME280;3961;42.058;25.586;2022-07-10T06:35:03;65305.56;;;27.08;65.50
7832;BME280;3961;42.058;25.586;2022-07-10T06:37:30;65324.16;;;27.22;65.95
7832;BME280;3961;42.058;25.586;2022-07-10T06:39:56;65326.34;;;27.28;65.10
7832;BME280;3961;42.058;25.586;2022-07-10T06:42:21;65354.50;;;27.46;64.35
7832;BME280;3961;42.058;25.586;2022-07-10T06:44:47;65369.28;;;27.65;64.19
7832;BME280;3961;42.058;25.586;2022-07-10T06:47:14;65390.84;;;27.82;63.73
7832;BME280;3961;42.058;25.586;2022-07-10T06:50:00;65352.00;;;27.48;63.50
7832;BME280;3961;42.058;25.586;2022-07-10T06:52:26;65394.75;;;27.83;63.96
7832;BME280;3961;42.058;25.586;2022-07-10T06:54:52;65376.34;;;27.71;63.42
7832;BME280;3961;42.058;25.586;2022-07-10T06:57:18;65386.28;;;27.73;63.96
7832;BME280;3961;42.058;25.586;2022-07-10T06:59:45;65392.59;;;27.83;62.68
7832;BME280;3961;42.058;25.586;2022-07-10T07:02:11;65409.66;;;27.98;63.60
7832;BME280;3961;42.058;25.586;2022-07-10T07:04:37;65443.78;;;28.27;62.20
7832;BME280;3961;42.058;25.586;2022-07-10T07:07:03;65426.50;;;28.10;62.27
7832;BME280;3961;42.058;25.586;2022-07-10T07:09:28;65360.03;;;27.53;63.98
7832;BME280;3961;42.058;25.586;2022-07-10T07:11:54;65364.97;;;27.59;63.56
7832;BME280;3961;42.058;25.586;2022-07-10T07:14:19;65347.47;;;27.39;63.34
7832;BME280;3961;42.058;25.586;2022-07-10T07:16:45;65335.75;;;27.36;62.83
7832;BME280;3961;42.058;25.586;2022-07-10T07:19:12;65317.91;;;27.19;63.49
7832;BME280;3961;42.058;25.586;2022-07-10T07:21:43;65406.50;;;27.93;62.10
7832;BME280;3961;42.058;25.586;2022-07-10T07:24:28;65386.28;;;27.73;62.02
7832;BME280;3961;42.058;25.586;2022-07-10T07:26:53;65406.13;;;27.95;61.17
7832;BME280;3961;42.058;25.586;2022-07-10T07:29:19;65362.59;;;27.57;61.47
7832;BME280;3961;42.058;25.586;2022-07-10T07:31:45;65321.81;;;27.20;64.45
7832;BME280;3961;42.058;25.586;2022-07-10T07:34:10;65347.50;;;27.47;64.43
7832;BME280;3961;42.058;25.586;2022-07-10T07:36:37;65363.41;;;27.60;63.59
7832;BME280;3961;42.058;25.586;2022-07-10T07:39:03;65418.03;;;28.00;63.01
7832;BME280;3961;42.058;25.586;2022-07-10T07:41:29;65455.13;;;28.32;61.19
7832;BME280;3961;42.058;25.586;2022-07-10T07:43:54;65444.78;;;28.26;59.94
7832;BME280;3961;42.058;25.586;2022-07-10T07:46:20;65447.31;;;28.30;61.05
7832;BME280;3961;42.058;25.586;2022-07-10T07:48:46;65483.03;;;28.59;61.28
7832;BME280;3961;42.058;25.586;2022-07-10T07:51:12;65502.50;;;28.83;59.85
7832;BME280;3961;42.058;25.586;2022-07-10T07:53:38;65455.34;;;28.35;59.65
7832;BME280;3961;42.058;25.586;2022-07-10T07:56:04;65467.56;;;28.50;60.48
7832;BME280;3961;42.058;25.586;2022-07-10T07:58:30;65439.91;;;28.26;58.19
7832;BME280;3961;42.058;25.586;2022-07-10T08:00:56;65456.16;;;28.38;59.85
7832;BME280;3961;42.058;25.586;2022-07-10T08:03:22;65457.91;;;28.39;59.60
7832;BME280;3961;42.058;25.586;2022-07-10T08:05:48;65465.56;;;28.46;57.87
7832;BME280;3961;42.058;25.586;2022-07-10T08:08:14;65495.38;;;28.69;59.85
7832;BME280;3961;42.058;25.586;2022-07-10T08:10:40;65454.97;;;28.37;60.64
7832;BME280;3961;42.058;25.586;2022-07-10T08:13:06;65444.38;;;28.28;58.92
7832;BME280;3961;42.058;25.586;2022-07-10T08:15:32;65428.28;;;28.12;59.46
7832;BME280;3961;42.058;25.586;2022-07-10T08:18:00;65436.16;;;28.21;59.87
7832;BME280;3961;42.058;25.586;2022-07-10T08:20:27;65390.84;;;27.82;61.19
7832;BME280;3961;42.058;25.586;2022-07-10T08:22:53;65413.19;;;28.01;59.60
7832;BME280;3961;42.058;25.586;2022-07-10T08:25:20;65392.22;;;27.85;60.26
7832;BME280;3961;42.058;25.586;2022-07-10T08:27:46;65380.03;;;27.70;61.72
7832;BME280;3961;42.058;25.586;2022-07-10T08:30:11;65404.56;;;27.96;60.36
7832;BME280;3961;42.058;25.586;2022-07-10T08:32:38;65410.59;;;27.96;59.48
7832;BME280;3961;42.058;25.586;2022-07-10T08:35:05;65412.97;;;27.98;59.40
7832;BME280;3961;42.058;25.586;2022-07-10T08:37:41;65420.03;;;28.04;60.26
7832;BME280;3961;42.058;25.586;2022-07-10T08:40:12;65387.69;;;27.76;60.05
7832;BME280;3961;42.058;25.586;2022-07-10T08:42:38;65341.63;;;27.41;60.52
7832;BME280;3961;42.058;25.586;2022-07-10T08:45:04;65329.28;;;27.31;60.77
7832;BME280;3961;42.058;25.586;2022-07-10T08:47:34;65303.44;;;27.08;61.34
7832;BME280;3961;42.058;25.586;2022-07-10T08:50:00;65376.72;;;27.69;60.49
7832;BME280;3961;42.058;25.586;2022-07-10T08:54:56;65540.94;;;29.11;56.36
7832;BME280;3961;42.058;25.586;2022-07-10T08:57:23;65595.53;;;29.56;55.34
7832;BME280;3961;42.058;25.586;2022-07-10T08:59:49;65634.41;;;29.89;53.86
7832;BME280;3961;42.058;25.586;2022-07-10T09:02:15;65599.44;;;29.57;54.20
7832;BME280;3961;42.058;25.586;2022-07-10T09:04:41;65586.09;;;29.48;52.85
7832;BME280;3961;42.058;25.586;2022-07-10T09:07:06;65615.78;;;29.75;52.56
7832;BME280;3961;42.058;25.586;2022-07-10T09:09:50;65688.06;;;30.35;49.56
7832;BME280;3961;42.058;25.586;2022-07-10T09:12:16;65658.97;;;30.08;52.53
7832;BME280;3961;42.058;25.586;2022-07-10T09:14:42;65603.78;;;29.63;55.12
7832;BME280;3961;42.058;25.586;2022-07-10T09:17:07;65579.03;;;29.41;55.44
7832;BME280;3961;42.058;25.586;2022-07-10T09:19:34;65572.16;;;29.38;56.25
7832;BME280;3961;42.058;25.586;2022-07-10T09:24:25;65538.00;;;29.08;57.26
7832;BME280;3961;42.058;25.586;2022-07-10T09:29:22;65520.50;;;28.89;57.80
7832;BME280;3961;42.058;25.586;2022-07-10T09:31:56;65518.97;;;28.90;57.54
7832;BME280;3961;42.058;25.586;2022-07-10T09:34:51;65547.81;;;29.15;58.24
7832;BME280;3961;42.058;25.586;2022-07-10T09:37:42;65521.28;;;28.92;57.70
7832;BME280;3961;42.058;25.586;2022-07-10T09:40:08;65520.91;;;28.94;59.30
7832;BME280;3961;42.058;25.586;2022-07-10T09:42:36;65526.00;;;28.96;58.66
7832;BME280;3961;42.058;25.586;2022-07-10T09:47:58;65504.41;;;28.80;58.57
7832;BME280;3961;42.058;25.586;2022-07-10T09:50:35;65492.63;;;28.69;59.03
7832;BME280;3961;42.058;25.586;2022-07-10T09:53:06;65457.31;;;28.39;59.12
7832;BME280;3961;42.058;25.586;2022-07-10T09:55:35;65448.72;;;28.34;60.45
7832;BME280;3961;42.058;25.586;2022-07-10T10:00:36;65476.53;;;28.53;58.88
7832;BME280;3961;42.058;25.586;2022-07-10T10:03:05;65471.47;;;28.51;59.05
7832;BME280;3961;42.058;25.586;2022-07-10T10:07:56;65406.69;;;27.95;61.15
7832;BME280;3961;42.058;25.586;2022-07-10T10:10:23;65400.63;;;27.88;62.37
7832;BME280;3961;42.058;25.586;2022-07-10T10:12:54;65382.22;;;27.76;63.69
7832;BME280;3961;42.058;25.586;2022-07-10T10:15:23;65382.75;;;27.70;63.85
7832;BME280;3961;42.058;25.586;2022-07-10T10:17:50;65376.72;;;27.69;63.76
7832;BME280;3961;42.058;25.586;2022-07-10T10:20:17;65388.06;;;27.74;62.88
7832;BME280;3961;42.058;25.586;2022-07-10T10:23:04;65367.88;;;27.62;63.24
7832;BME280;3961;42.058;25.586;2022-07-10T10:25:32;65341.03;;;27.41;62.11
7832;BME280;3961;42.058;25.586;2022-07-10T10:28:02;65355.31;;;27.49;62.40
7832;BME280;3961;42.058;25.586;2022-07-10T10:30:30;65343.97;;;27.43;62.53
7832;BME280;3961;42.058;25.586;2022-07-10T10:32:56;65353.97;;;27.52;63.41
7832;BME280;3961;42.058;25.586;2022-07-10T10:35:44;65356.56;;;27.57;62.21
7832;BME280;3961;42.058;25.586;2022-07-10T10:38:14;65344.94;;;27.42;62.80
7832;BME280;3961;42.058;25.586;2022-07-10T10:40:41;65380.84;;;27.73;62.22
7832;BME280;3961;42.058;25.586;2022-07-10T10:43:20;65362.00;;;27.57;62.98
7832;BME280;3961;42.058;25.586;2022-07-10T10:45:50;65399.66;;;27.89;62.27
7832;BME280;3961;42.058;25.586;2022-07-10T10:48:18;65425.53;;;28.12;61.00
7832;BME280;3961;42.058;25.586;2022-07-10T10:50:54;65422.97;;;28.07;61.16
7832;BME280;3961;42.058;25.586;2022-07-10T10:53:22;65464.56;;;28.40;59.81
7832;BME280;3961;42.058;25.586;2022-07-10T10:58:27;65477.72;;;28.54;58.97
7832;BME280;3961;42.058;25.586;2022-07-10T11:01:26;65485.94;;;28.61;58.52
7832;BME280;3961;42.058;25.586;2022-07-10T11:06:49;65521.88;;;28.92;58.30
7832;BME280;3961;42.058;25.586;2022-07-10T11:09:31;65524.81;;;28.95;58.63
7832;BME280;3961;42.058;25.586;2022-07-10T11:12:01;65501.09;;;28.79;57.36
7832;BME280;3961;42.058;25.586;2022-07-10T11:14:27;65510.34;;;28.85;56.02
7832;BME280;3961;42.058;25.586;2022-07-10T11:16:55;65514.25;;;28.86;55.66
7832;BME280;3961;42.058;25.586;2022-07-10T11:19:31;65482.63;;;28.61;56.06
7832;BME280;3961;42.058;25.586;2022-07-10T11:28:21;65497.94;;;28.74;57.05
7832;BME280;3961;42.058;25.586;2022-07-10T11:30:52;65516.81;;;28.90;57.63
7832;BME280;3961;42.058;25.586;2022-07-10T11:33:19;65513.88;;;28.88;57.37
7832;BME280;3961;42.058;25.586;2022-07-10T11:35:48;65537.41;;;29.08;57.36
7832;BME280;3961;42.058;25.586;2022-07-10T11:38:24;65553.91;;;29.22;56.29
7832;BME280;3961;42.058;25.586;2022-07-10T11:40:51;65543.09;;;29.11;55.91
7832;BME280;3961;42.058;25.586;2022-07-10T11:43:19;65538.59;;;29.09;56.24
7832;BME280;3961;42.058;25.586;2022-07-10T11:45:47;65530.34;;;29.02;56.47
7832;BME280;3961;42.058;25.586;2022-07-10T11:48:17;65512.69;;;28.87;55.27
7832;BME280;3961;42.058;25.586;2022-07-10T11:50:43;65512.31;;;28.89;55.78
7832;BME280;3961;42.058;25.586;2022-07-10T11:53:09;65526.81;;;28.99;55.17
7832;BME280;3961;42.058;25.586;2022-07-10T11:55:36;65548.22;;;29.20;54.24
7832;BME280;3961;42.058;25.586;2022-07-10T11:58:15;65558.81;;;29.29;56.04
7832;BME280;3961;42.058;25.586;2022-07-10T12:00:42;65565.84;;;29.28;53.72
7832;BME280;3961;42.058;25.586;2022-07-10T12:03:19;65568.19;;;29.30;55.00
7832;BME280;3961;42.058;25.586;2022-07-10T12:05:45;65578.28;;;29.46;54.27
7832;BME280;3961;42.058;25.586;2022-07-10T12:08:11;65571.72;;;29.33;52.68
7832;BME280;3961;42.058;25.586;2022-07-10T12:10:38;65538.59;;;29.09;54.18
7832;BME280;3961;42.058;25.586;2022-07-10T12:13:08;65545.44;;;29.13;54.17
7832;BME280;3961;42.058;25.586;2022-07-10T12:15:39;65519.53;;;28.90;54.18
7832;BME280;3961;42.058;25.586;2022-07-10T12:18:06;65566.63;;;29.31;54.01
7832;BME280;3961;42.058;25.586;2022-07-10T12:20:32;65556.44;;;29.27;54.57
7832;BME280;3961;42.058;25.586;2022-07-10T12:22:59;65537.78;;;29.06;56.24
7832;BME280;3961;42.058;25.586;2022-07-10T12:25:25;65544.84;;;29.12;55.87
7832;BME280;3961;42.058;25.586;2022-07-10T12:27:58;65493.00;;;28.67;56.37
7832;BME280;3961;42.058;25.586;2022-07-10T12:30:45;65517.19;;;28.88;58.12
7832;BME280;3961;42.058;25.586;2022-07-10T12:33:18;65507.38;;;28.82;58.10
7832;BME280;3961;42.058;25.586;2022-07-10T12:35:56;65500.28;;;28.76;57.40
7832;BME280;3961;42.058;25.586;2022-07-10T12:38:27;65502.06;;;28.77;57.81
7832;BME280;3961;42.058;25.586;2022-07-10T12:41:10;65512.69;;;28.87;57.21
7832;BME280;3961;42.058;25.586;2022-07-10T12:43:36;65496.38;;;28.75;57.69
7832;BME280;3961;42.058;25.586;2022-07-10T12:46:22;65507.75;;;28.80;57.43
7832;BME280;3961;42.058;25.586;2022-07-10T12:49:08;65500.28;;;28.76;57.38
7832;BME280;3961;42.058;25.586;2022-07-10T12:51:34;65489.69;;;28.67;58.02
7832;BME280;3961;42.058;25.586;2022-07-10T12:54:08;65480.66;;;28.57;57.87
7832;BME280;3961;42.058;25.586;2022-07-10T12:56:35;65481.44;;;28.60;58.71
7832;BME280;3961;42.058;25.586;2022-07-10T12:59:04;65482.44;;;28.58;57.97
7832;BME280;3961;42.058;25.586;2022-07-10T13:01:43;65469.91;;;28.52;59.23
7832;BME280;3961;42.058;25.586;2022-07-10T13:04:10;65477.34;;;28.56;58.17
7832;BME280;3961;42.058;25.586;2022-07-10T13:06:37;65459.09;;;28.40;59.00
7832;BME280;3961;42.058;25.586;2022-07-10T13:09:18;65444.78;;;28.26;58.46
7832;BME280;3961;42.058;25.586;2022-07-10T13:11:43;65485.34;;;28.61;59.20
7832;BME280;3961;42.058;25.586;2022-07-10T13:14:09;65502.22;;;28.73;59.18
7832;BME280;3961;42.058;25.586;2022-07-10T13:16:34;65527.19;;;28.97;58.09
7832;BME280;3961;42.058;25.586;2022-07-10T13:19:00;65535.06;;;29.06;57.60
7832;BME280;3961;42.058;25.586;2022-07-10T13:21:26;65556.25;;;29.24;56.35
7832;BME280;3961;42.058;25.586;2022-07-10T13:23:51;65576.06;;;29.39;57.26
7832;BME280;3961;42.058;25.586;2022-07-10T13:26:17;65623.22;;;29.80;55.82
7832;BME280;3961;42.058;25.586;2022-07-10T13:28:42;65647.41;;;30.00;54.48
7832;BME280;3961;42.058;25.586;2022-07-10T13:31:08;65682.19;;;30.30;52.58
7832;BME280;3961;42.058;25.586;2022-07-10T13:33:34;65683.34;;;30.31;53.08
7832;BME280;3961;42.058;25.586;2022-07-10T13:36:01;65709.69;;;30.52;52.61
7832;BME280;3961;42.058;25.586;2022-07-10T13:38:27;65714.03;;;30.58;52.43
7832;BME280;3961;42.058;25.586;2022-07-10T13:40:53;65737.06;;;30.78;52.00
7832;BME280;3961;42.058;25.586;2022-07-10T13:43:20;65747.47;;;30.84;51.33